KCXP

Carson Airport

Carson City, Nevada, USA
METAR KCXP 201935Z AUTO 08007KT 10SM CLR 19/M08 A3021 RMK AO2
Observed Flight Rules
Oct-20 @ 19:35 UTC (28 minutes ago) Visual Flight Rules
Wind Visibility Clouds
80° at 7 knots 10 miles
  • Clear skies
Temperatures Readings
Current 19°C / 66°F
Dewpoint -8°C / 18°F
Humidity 15%
Altimeter 30.21" Hg
Pressure 1023 hPa
Elevation 1435
METAR KCXP 201935Z AUTO 08007KT 10SM CLR 19/M08 A3021 RMK AO2
Observed Flight Rules
Oct-20 @ 19:35 UTC
(28 minutes ago)
VFR
Wind Visibility
80° at 7 knots 10 miles
Clouds
  • Clear skies
Temperature Dewpoint
19°C / 66°F -8°C / 18°F
Humidity Altimeter Pressure
15% 30.21" Hg 1023 hPa